Pintail — WDF5177 — position and weather

sailwx.info

Track history (hours):
 
Tides and Currents Weather Stations Pressure Air Temp Water Temp Dewpoint Dewpoint Depression Visibility Wind Speed Wind Dir Waves Ship Positions

Pintail

Owner: Pintail Marine Services, Inc, Friday Harbor, WA. More information available from US FCC via Universal Licensing System and Coast Guard Vessel Documentation Center.

Last reported at 2017-Feb-22 06:28 UTC. Time now 2017-Feb-22 06:48 UTC.
Position N 48°31' W 122°37'.

Length 19 m.

Type: Towing. MMSI: 367460260.

Date/timePositionNaut miles runAvg speedWind from/ knotsBaromVisibWave heightAir tempDewpointWater temp
2017-Feb-22 06:28N 48°31' W 122°37'0 0.0
2017-Feb-22 05:30N 48°31' W 122°37'0 0.0
2017-Feb-22 04:30N 48°31' W 122°37'0 0.0
2017-Feb-22 03:30N 48°31' W 122°37'0 0.0
2017-Feb-22 02:15N 48°31' W 122°37'1 1.5
2017-Feb-22 01:33N 48°31' W 122°38'6 6.4
2017-Feb-22 00:33N 48°35' W 122°47'3 2.9
2017-Feb-21 23:32N 48°35' W 122°51'6 6.4
2017-Feb-21 22:33N 48°32' W 122°59'1 0.7
2017-Feb-21 21:32N 48°32' W 122°60'0 0.0
2017-Feb-21 20:32N 48°32' W 122°60'0 0.0
2017-Feb-21 19:32N 48°32' W 122°60'0 0.0
2017-Feb-21 18:32N 48°32' W 122°60'0 0.0
2017-Feb-21 17:32N 48°32' W 122°60'0 0.0
2017-Feb-21 16:32N 48°32' W 122°60'0 0.0
2017-Feb-21 15:20N 48°32' W 122°60'0 0.0
2017-Feb-21 14:33N 48°32' W 122°60'0 0.0
2017-Feb-21 13:32N 48°32' W 122°60'0 0.0
2017-Feb-21 12:32N 48°32' W 122°60'0 0.0
2017-Feb-21 11:32N 48°32' W 122°60'0 0.0
2017-Feb-21 10:32N 48°32' W 122°60'0 0.0
2017-Feb-21 09:32N 48°32' W 122°60'0 0.0
2017-Feb-21 08:32N 48°32' W 122°60'0 0.0
2017-Feb-21 07:32N 48°32' W 122°60'0 0.0
2017-Feb-21 06:29N 48°32' W 122°60'0 0.0
2017-Feb-21 05:32N 48°32' W 122°60'4 3.9
2017-Feb-21 04:33N 48°34' W 122°55'5 4.8
2017-Feb-21 03:32N 48°36' W 122°49'0 0.1
2017-Feb-21 02:31N 48°36' W 122°49'6 5.9
2017-Feb-21 01:32N 48°32' W 122°43'4 4.4
2017-Feb-21 00:32N 48°31' W 122°36'5 4.6
2017-Feb-20 23:25N 48°32' W 122°44'5 6.0
2017-Feb-20 22:33N 48°34' W 122°51'6 5.9
2017-Feb-20 21:33N 48°32' W 122°60'4 4.3
2017-Feb-20 20:31N 48°34' W 122°54'6 5.9
2017-Feb-20 19:32N 48°32' W 122°46'6 6.1
2017-Feb-20 18:30N 48°31' W 122°36'9 4.4
2017-Feb-20 16:32N 48°32' W 122°49'5 4.8
2017-Feb-20 15:33N 48°33' W 122°57'3 2.4
2017-Feb-20 14:29N 48°32' W 122°60'0 0.0
2017-Feb-20 13:29N 48°32' W 122°60'0 0.0
2017-Feb-20 12:32N 48°32' W 122°60'0 0.0
2017-Feb-20 11:32N 48°32' W 122°60'0 0.0
2017-Feb-20 10:32N 48°32' W 122°60'0 0.0
2017-Feb-20 09:32N 48°32' W 122°60'0 0.0
2017-Feb-20 08:32N 48°32' W 122°60'0 0.0
2017-Feb-20 07:32N 48°32' W 122°60'0 0.0
2017-Feb-20 06:32N 48°32' W 122°60'0 0.0
2017-Feb-20 05:30N 48°32' W 122°60'0 0.0
2017-Feb-20 04:32N 48°32' W 122°60'0 0.0
2017-Feb-20 03:32N 48°32' W 122°60'0 0.0
2017-Feb-20 02:33N 48°32' W 122°60'0 0.0
2017-Feb-20 01:30N 48°32' W 122°60'0 0.0
2017-Feb-20 00:33N 48°32' W 122°60'0 0.0
2017-Feb-19 23:33N 48°32' W 122°60'0 0.0
2017-Feb-19 22:27N 48°32' W 122°60'0 0.0
2017-Feb-19 21:33N 48°32' W 122°60'0 0.0
2017-Feb-19 20:33N 48°32' W 122°60'0 0.0
2017-Feb-19 19:33N 48°32' W 122°60'0 0.0
2017-Feb-19 18:33N 48°32' W 122°60'0 0.0
2017-Feb-19 17:33N 48°32' W 122°60'0 0.0
2017-Feb-19 16:30N 48°32' W 122°60'0 0.0
2017-Feb-19 15:33N 48°32' W 122°60'0 0.0
2017-Feb-19 14:30N 48°32' W 122°60'0 0.0
2017-Feb-19 13:33N 48°32' W 122°60'0 0.0
2017-Feb-19 12:33N 48°32' W 122°60'0 0.0
2017-Feb-19 11:33N 48°32' W 122°60'0 0.0
2017-Feb-19 10:33N 48°32' W 122°60'0 0.0
2017-Feb-19 09:24N 48°32' W 122°60'0 0.0
2017-Feb-19 08:33N 48°32' W 122°60'0 0.0
2017-Feb-19 07:33N 48°32' W 122°60'0 0.0
2017-Feb-19 06:33N 48°32' W 122°60'0 0.0
2017-Feb-19 05:33N 48°32' W 122°60'0 0.0
2017-Feb-19 04:33N 48°32' W 122°60'0 0.0
2017-Feb-19 03:33N 48°32' W 122°60'0 0.0
2017-Feb-19 02:33N 48°32' W 122°60'0 0.0
2017-Feb-19 01:33N 48°32' W 122°60'0 0.0
2017-Feb-19 00:33N 48°32' W 122°60'0 0.0
2017-Feb-18 23:33N 48°32' W 122°60'0 0.0
2017-Feb-18 22:33N 48°32' W 122°60'0 0.0
2017-Feb-18 21:33N 48°32' W 122°60'0 0.0
2017-Feb-18 20:33N 48°32' W 122°60'0 0.0
2017-Feb-18 19:33N 48°32' W 122°60'0 0.0
2017-Feb-18 18:33N 48°32' W 122°60'0 0.0
2017-Feb-18 17:33N 48°32' W 122°60'0 0.0
2017-Feb-18 16:32N 48°32' W 122°60'0 0.0
2017-Feb-18 15:29N 48°32' W 122°60'0 0.0
2017-Feb-18 14:29N 48°32' W 122°60'0 0.0
2017-Feb-18 13:30N 48°32' W 122°60'0 0.0
2017-Feb-18 12:30N 48°32' W 122°60'0 0.0
2017-Feb-18 11:30N 48°32' W 122°60'0 0.0
2017-Feb-18 10:33N 48°32' W 122°60'0 0.0
2017-Feb-18 09:33N 48°32' W 122°60'0 0.0
2017-Feb-18 08:33N 48°32' W 122°60'0 0.0
2017-Feb-18 07:33N 48°32' W 122°60'0 0.0
2017-Feb-18 06:33N 48°32' W 122°60'0 0.0
2017-Feb-18 05:33N 48°32' W 122°60'0 0.0
2017-Feb-18 04:33N 48°32' W 122°60'0 0.0
2017-Feb-18 03:32N 48°32' W 122°60'0 0.0
2017-Feb-18 02:29N 48°32' W 122°60'0 0.0
2017-Feb-18 01:32N 48°32' W 122°60'0 0.1
2017-Feb-18 00:34N 48°32' W 122°60'6 6.0
2017-Feb-17 23:34N 48°35' W 122°52'2 1.7
2017-Feb-17 22:24N 48°35' W 122°49'0 0.0
2017-Feb-17 21:30N 48°35' W 122°49'0 0.0
2017-Feb-17 20:30N 48°35' W 122°49'0 0.0
2017-Feb-17 19:32N 48°35' W 122°49'0 0.0
2017-Feb-17 18:20N 48°35' W 122°49'0 0.0
2017-Feb-17 16:31N 48°35' W 122°49'6 5.8
2017-Feb-17 15:33N 48°33' W 122°57'2 2.4
2017-Feb-17 14:33N 48°32' W 122°60'0 0.0
2017-Feb-17 13:33N 48°32' W 122°60'0 0.0
2017-Feb-17 12:33N 48°32' W 122°60'0 0.0
2017-Feb-17 11:33N 48°32' W 122°60'0 0.0
2017-Feb-17 10:33N 48°32' W 122°60'0 0.0
2017-Feb-17 09:33N 48°32' W 122°60'0 0.0
2017-Feb-17 08:33N 48°32' W 122°60'0 0.0
2017-Feb-17 07:33N 48°32' W 122°60'0 0.0
2017-Feb-17 06:32N 48°32' W 122°60'0 0.0
2017-Feb-17 05:28N 48°32' W 122°60'0 0.0
2017-Feb-17 04:31N 48°32' W 122°60'0 0.0
2017-Feb-17 03:31N 48°32' W 122°60'5 5.3
2017-Feb-17 02:32N 48°34' W 122°53'7 6.7
2017-Feb-17 01:31N 48°31' W 122°44'5 5.2
2017-Feb-17 00:29N 48°31' W 122°36'5 5.6
2017-Feb-16 23:31N 48°32' W 122°44'6 5.8
2017-Feb-16 22:33N 48°34' W 122°52'6 5.5
2017-Feb-16 21:31N 48°32' W 123°00'0 0.1
2017-Feb-16 20:32N 48°32' W 122°60'0 0.0
2017-Feb-16 19:23N 48°32' W 122°60'0 0.0
2017-Feb-16 18:32N 48°32' W 122°60'3 3.0
2017-Feb-16 17:32N 48°33' W 122°56'5 5.5
2017-Feb-16 16:33N 48°32' W 122°48'7 6.1
2017-Feb-16 15:27N 48°31' W 122°38'1 0.9
2017-Feb-16 14:33N 48°31' W 122°37'0 0.0
2017-Feb-16 13:33N 48°31' W 122°37'0 0.0
2017-Feb-16 12:33N 48°31' W 122°37'0 0.0
2017-Feb-16 11:33N 48°31' W 122°37'0 0.0
2017-Feb-16 10:33N 48°31' W 122°37'0 0.0
2017-Feb-16 09:33N 48°31' W 122°37'0 0.0
2017-Feb-16 08:33N 48°31' W 122°37'0 0.0
2017-Feb-16 07:33N 48°31' W 122°37'0 0.0
2017-Feb-16 06:33N 48°31' W 122°37'0 0.0
2017-Feb-16 05:30N 48°31' W 122°37'0 0.0
2017-Feb-16 04:33N 48°31' W 122°37'0 0.0
2017-Feb-16 03:33N 48°31' W 122°37'0 0.0
2017-Feb-16 02:33N 48°31' W 122°37'0 0.0
2017-Feb-16 01:27N 48°31' W 122°37'5 5.2
2017-Feb-16 00:31N 48°32' W 122°44'4 4.5
2017-Feb-15 23:33N 48°33' W 122°50'5 4.8
2017-Feb-15 22:33N 48°33' W 122°58'1 0.8
2017-Feb-15 21:32N 48°32' W 122°59'5 5.1
2017-Feb-15 20:32N 48°34' W 122°51'5 5.2
2017-Feb-15 19:33N 48°32' W 122°44'5 4.8
2017-Feb-15 18:29N 48°31' W 122°36'6 4.2
2017-Feb-15 17:08N 48°32' W 122°45'3 5.1
2017-Feb-15 16:32N 48°32' W 122°49'4 4.4
2017-Feb-15 15:33N 48°33' W 122°56'3 3.2
2017-Feb-15 14:33N 48°32' W 122°60'0 0.0
2017-Feb-15 13:30N 48°32' W 122°60'0 0.0
2017-Feb-15 12:33N 48°32' W 122°60'0 0.0
2017-Feb-15 11:34N 48°32' W 122°60'0 0.0
2017-Feb-15 10:33N 48°32' W 122°60'0 0.0
2017-Feb-15 09:33N 48°32' W 122°60'0 0.0
2017-Feb-15 08:33N 48°32' W 122°60'0 0.0
2017-Feb-15 07:30N 48°32' W 122°60'0 0.0
2017-Feb-15 06:30N 48°32' W 122°60'0 0.0
2017-Feb-15 05:33N 48°32' W 122°60'0 0.0
2017-Feb-15 04:33N 48°32' W 122°60'0 0.0
2017-Feb-15 03:33N 48°32' W 122°60'0 0.0
2017-Feb-15 02:32N 48°32' W 122°60'0 0.0
2017-Feb-15 01:29N 48°32' W 122°60'0 0.0
2017-Feb-15 00:32N 48°32' W 122°60'1 0.8
2017-Feb-14 23:33N 48°33' W 122°60'8 5.8
2017-Feb-14 22:12N 48°38' W 123°09'2 2.0
2017-Feb-14 21:26N 48°39' W 123°10'2 2.1
2017-Feb-14 20:30N 48°37' W 123°09'3 1.0
2017-Feb-14 17:24N 48°40' W 123°10'11 3.8
2017-Feb-14 14:33N 48°32' W 122°60'0 0.0
2017-Feb-14 13:33N 48°32' W 122°60'0 0.0
2017-Feb-14 12:33N 48°32' W 122°60'0 0.0
2017-Feb-14 11:33N 48°32' W 122°60'0 0.0
2017-Feb-14 10:33N 48°32' W 122°60'0 0.0
2017-Feb-14 09:33N 48°32' W 122°60'0 0.0
2017-Feb-14 08:33N 48°32' W 122°60'0 0.0
2017-Feb-14 07:30N 48°32' W 122°60'0 0.0
2017-Feb-14 06:33N 48°32' W 122°60'0 0.0
2017-Feb-14 05:33N 48°32' W 122°60'0 0.0
2017-Feb-14 04:33N 48°32' W 122°60'0 0.0
2017-Feb-14 03:33N 48°32' W 122°60'0 0.0
2017-Feb-14 02:33N 48°32' W 122°60'0 0.0
2017-Feb-14 01:33N 48°32' W 122°60'0 0.0
2017-Feb-14 00:33N 48°32' W 122°60'0 0.0
2017-Feb-13 23:33N 48°32' W 122°60'0 0.0
2017-Feb-13 22:30N 48°32' W 122°60'0 0.0
2017-Feb-13 21:31N 48°32' W 122°60'1 0.6
2017-Feb-13 19:08N 48°33' W 123°00'1 2.6
2017-Feb-13 18:33N 48°32' W 122°60'0 0.0
2017-Feb-13 17:33N 48°32' W 122°60'0 0.0
2017-Feb-13 16:33N 48°32' W 122°60'0 0.0
2017-Feb-13 15:33N 48°32' W 122°60'0 0.0
2017-Feb-13 14:30N 48°32' W 122°60'0 0.0
2017-Feb-13 13:33N 48°32' W 122°60'0 0.0
2017-Feb-13 12:30N 48°32' W 122°60'0 0.0
2017-Feb-13 11:33N 48°32' W 122°60'0 0.0
2017-Feb-13 10:30N 48°32' W 122°60'0 0.0
2017-Feb-13 09:33N 48°32' W 122°60'0 0.0
2017-Feb-13 08:33N 48°32' W 122°60'0 0.0
2017-Feb-13 07:27N 48°32' W 122°60'0 0.0
2017-Feb-13 06:30N 48°32' W 122°60'0 0.0
2017-Feb-13 05:33N 48°32' W 122°60'0 0.0
2017-Feb-13 04:33N 48°32' W 122°60'0 0.0
2017-Feb-13 03:33N 48°32' W 122°60'0 0.0
2017-Feb-13 02:33N 48°32' W 122°60'0 0.0
2017-Feb-13 01:33N 48°32' W 122°60'0 0.0
2017-Feb-13 00:33N 48°32' W 122°60'0 0.0
2017-Feb-12 23:33N 48°32' W 122°60'0 0.0
2017-Feb-12 22:33N 48°32' W 122°60'0 0.0
2017-Feb-12 21:33N 48°32' W 122°60'0 0.0
2017-Feb-12 20:33N 48°32' W 122°60'0 0.0
2017-Feb-12 19:33N 48°32' W 122°60'0 0.0
2017-Feb-12 18:27N 48°32' W 122°60'0 0.0
2017-Feb-12 17:30N 48°32' W 122°60'0 0.0
2017-Feb-12 16:33N 48°32' W 122°60'0 0.0
2017-Feb-12 15:33N 48°32' W 122°60'0 0.0
2017-Feb-12 14:33N 48°32' W 122°60'0 0.0
2017-Feb-12 13:33N 48°32' W 122°60'0 0.0
2017-Feb-12 12:33N 48°32' W 122°60'0 0.0
2017-Feb-12 11:33N 48°32' W 122°60'0 0.0
2017-Feb-12 10:30N 48°32' W 122°60'0 0.0
2017-Feb-12 09:33N 48°32' W 122°60'0 0.0
2017-Feb-12 08:33N 48°32' W 122°60'0 0.0
2017-Feb-12 07:33N 48°32' W 122°60'0 0.0
2017-Feb-12 06:30N 48°32' W 122°60'  
Track history (hours):
 
Tides and Currents Weather Stations Pressure Air Temp Water Temp Dewpoint Dewpoint Depression Visibility Wind Speed Wind Dir Waves Ship Positions

Pintail

Owner: Pintail Marine Services, Inc, Friday Harbor, WA. More information available from US FCC via Universal Licensing System and Coast Guard Vessel Documentation Center.

Last reported at 2017-Feb-22 06:28 UTC. Time now 2017-Feb-22 06:48 UTC.
Position N 48°31' W 122°37'.

Length 19 m.

Type: Towing. MMSI: 367460260.

Date/timePositionNaut miles runAvg speedWind from/ knotsBaromVisibWave heightAir tempDewpointWater temp
2017-Feb-22 06:28N 48°31' W 122°37'0 0.0
2017-Feb-22 05:30N 48°31' W 122°37'0 0.0
2017-Feb-22 04:30N 48°31' W 122°37'0 0.0
2017-Feb-22 03:30N 48°31' W 122°37'0 0.0
2017-Feb-22 02:15N 48°31' W 122°37'1 1.5
2017-Feb-22 01:33N 48°31' W 122°38'6 6.4
2017-Feb-22 00:33N 48°35' W 122°47'3 2.9
2017-Feb-21 23:32N 48°35' W 122°51'6 6.4
2017-Feb-21 22:33N 48°32' W 122°59'1 0.7
2017-Feb-21 21:32N 48°32' W 122°60'0 0.0
2017-Feb-21 20:32N 48°32' W 122°60'0 0.0
2017-Feb-21 19:32N 48°32' W 122°60'0 0.0
2017-Feb-21 18:32N 48°32' W 122°60'0 0.0
2017-Feb-21 17:32N 48°32' W 122°60'0 0.0
2017-Feb-21 16:32N 48°32' W 122°60'0 0.0
2017-Feb-21 15:20N 48°32' W 122°60'0 0.0
2017-Feb-21 14:33N 48°32' W 122°60'0 0.0
2017-Feb-21 13:32N 48°32' W 122°60'0 0.0
2017-Feb-21 12:32N 48°32' W 122°60'0 0.0
2017-Feb-21 11:32N 48°32' W 122°60'0 0.0
2017-Feb-21 10:32N 48°32' W 122°60'0 0.0
2017-Feb-21 09:32N 48°32' W 122°60'0 0.0
2017-Feb-21 08:32N 48°32' W 122°60'0 0.0
2017-Feb-21 07:32N 48°32' W 122°60'0 0.0
2017-Feb-21 06:29N 48°32' W 122°60'0 0.0
2017-Feb-21 05:32N 48°32' W 122°60'4 3.9
2017-Feb-21 04:33N 48°34' W 122°55'5 4.8
2017-Feb-21 03:32N 48°36' W 122°49'0 0.1
2017-Feb-21 02:31N 48°36' W 122°49'6 5.9
2017-Feb-21 01:32N 48°32' W 122°43'4 4.4
2017-Feb-21 00:32N 48°31' W 122°36'5 4.6
2017-Feb-20 23:25N 48°32' W 122°44'5 6.0
2017-Feb-20 22:33N 48°34' W 122°51'6 5.9
2017-Feb-20 21:33N 48°32' W 122°60'4 4.3
2017-Feb-20 20:31N 48°34' W 122°54'6 5.9
2017-Feb-20 19:32N 48°32' W 122°46'6 6.1
2017-Feb-20 18:30N 48°31' W 122°36'9 4.4
2017-Feb-20 16:32N 48°32' W 122°49'5 4.8
2017-Feb-20 15:33N 48°33' W 122°57'3 2.4
2017-Feb-20 14:29N 48°32' W 122°60'0 0.0
2017-Feb-20 13:29N 48°32' W 122°60'0 0.0
2017-Feb-20 12:32N 48°32' W 122°60'0 0.0
2017-Feb-20 11:32N 48°32' W 122°60'0 0.0
2017-Feb-20 10:32N 48°32' W 122°60'0 0.0
2017-Feb-20 09:32N 48°32' W 122°60'0 0.0
2017-Feb-20 08:32N 48°32' W 122°60'0 0.0
2017-Feb-20 07:32N 48°32' W 122°60'0 0.0
2017-Feb-20 06:32N 48°32' W 122°60'0 0.0
2017-Feb-20 05:30N 48°32' W 122°60'0 0.0
2017-Feb-20 04:32N 48°32' W 122°60'0 0.0
2017-Feb-20 03:32N 48°32' W 122°60'0 0.0
2017-Feb-20 02:33N 48°32' W 122°60'0 0.0
2017-Feb-20 01:30N 48°32' W 122°60'0 0.0
2017-Feb-20 00:33N 48°32' W 122°60'0 0.0
2017-Feb-19 23:33N 48°32' W 122°60'0 0.0
2017-Feb-19 22:27N 48°32' W 122°60'0 0.0
2017-Feb-19 21:33N 48°32' W 122°60'0 0.0
2017-Feb-19 20:33N 48°32' W 122°60'0 0.0
2017-Feb-19 19:33N 48°32' W 122°60'0 0.0
2017-Feb-19 18:33N 48°32' W 122°60'0 0.0
2017-Feb-19 17:33N 48°32' W 122°60'0 0.0
2017-Feb-19 16:30N 48°32' W 122°60'0 0.0
2017-Feb-19 15:33N 48°32' W 122°60'0 0.0
2017-Feb-19 14:30N 48°32' W 122°60'0 0.0
2017-Feb-19 13:33N 48°32' W 122°60'0 0.0
2017-Feb-19 12:33N 48°32' W 122°60'0 0.0
2017-Feb-19 11:33N 48°32' W 122°60'0 0.0
2017-Feb-19 10:33N 48°32' W 122°60'0 0.0
2017-Feb-19 09:24N 48°32' W 122°60'0 0.0
2017-Feb-19 08:33N 48°32' W 122°60'0 0.0
2017-Feb-19 07:33N 48°32' W 122°60'0 0.0
2017-Feb-19 06:33N 48°32' W 122°60'0 0.0
2017-Feb-19 05:33N 48°32' W 122°60'0 0.0
2017-Feb-19 04:33N 48°32' W 122°60'0 0.0
2017-Feb-19 03:33N 48°32' W 122°60'0 0.0
2017-Feb-19 02:33N 48°32' W 122°60'0 0.0
2017-Feb-19 01:33N 48°32' W 122°60'0 0.0
2017-Feb-19 00:33N 48°32' W 122°60'0 0.0
2017-Feb-18 23:33N 48°32' W 122°60'0 0.0
2017-Feb-18 22:33N 48°32' W 122°60'0 0.0
2017-Feb-18 21:33N 48°32' W 122°60'0 0.0
2017-Feb-18 20:33N 48°32' W 122°60'0 0.0
2017-Feb-18 19:33N 48°32' W 122°60'0 0.0
2017-Feb-18 18:33N 48°32' W 122°60'0 0.0
2017-Feb-18 17:33N 48°32' W 122°60'0 0.0
2017-Feb-18 16:32N 48°32' W 122°60'0 0.0
2017-Feb-18 15:29N 48°32' W 122°60'0 0.0
2017-Feb-18 14:29N 48°32' W 122°60'0 0.0
2017-Feb-18 13:30N 48°32' W 122°60'0 0.0
2017-Feb-18 12:30N 48°32' W 122°60'0 0.0
2017-Feb-18 11:30N 48°32' W 122°60'0 0.0
2017-Feb-18 10:33N 48°32' W 122°60'0 0.0
2017-Feb-18 09:33N 48°32' W 122°60'0 0.0
2017-Feb-18 08:33N 48°32' W 122°60'0 0.0
2017-Feb-18 07:33N 48°32' W 122°60'0 0.0
2017-Feb-18 06:33N 48°32' W 122°60'0 0.0
2017-Feb-18 05:33N 48°32' W 122°60'0 0.0
2017-Feb-18 04:33N 48°32' W 122°60'0 0.0
2017-Feb-18 03:32N 48°32' W 122°60'0 0.0
2017-Feb-18 02:29N 48°32' W 122°60'0 0.0
2017-Feb-18 01:32N 48°32' W 122°60'0 0.1
2017-Feb-18 00:34N 48°32' W 122°60'6 6.0
2017-Feb-17 23:34N 48°35' W 122°52'2 1.7
2017-Feb-17 22:24N 48°35' W 122°49'0 0.0
2017-Feb-17 21:30N 48°35' W 122°49'0 0.0
2017-Feb-17 20:30N 48°35' W 122°49'0 0.0
2017-Feb-17 19:32N 48°35' W 122°49'0 0.0
2017-Feb-17 18:20N 48°35' W 122°49'0 0.0
2017-Feb-17 16:31N 48°35' W 122°49'6 5.8
2017-Feb-17 15:33N 48°33' W 122°57'2 2.4
2017-Feb-17 14:33N 48°32' W 122°60'0 0.0
2017-Feb-17 13:33N 48°32' W 122°60'0 0.0
2017-Feb-17 12:33N 48°32' W 122°60'0 0.0
2017-Feb-17 11:33N 48°32' W 122°60'0 0.0
2017-Feb-17 10:33N 48°32' W 122°60'0 0.0
2017-Feb-17 09:33N 48°32' W 122°60'0 0.0
2017-Feb-17 08:33N 48°32' W 122°60'0 0.0
2017-Feb-17 07:33N 48°32' W 122°60'0 0.0
2017-Feb-17 06:32N 48°32' W 122°60'0 0.0
2017-Feb-17 05:28N 48°32' W 122°60'0 0.0
2017-Feb-17 04:31N 48°32' W 122°60'0 0.0
2017-Feb-17 03:31N 48°32' W 122°60'5 5.3
2017-Feb-17 02:32N 48°34' W 122°53'7 6.7
2017-Feb-17 01:31N 48°31' W 122°44'5 5.2
2017-Feb-17 00:29N 48°31' W 122°36'5 5.6
2017-Feb-16 23:31N 48°32' W 122°44'6 5.8
2017-Feb-16 22:33N 48°34' W 122°52'6 5.5
2017-Feb-16 21:31N 48°32' W 123°00'0 0.1
2017-Feb-16 20:32N 48°32' W 122°60'0 0.0
2017-Feb-16 19:23N 48°32' W 122°60'0 0.0
2017-Feb-16 18:32N 48°32' W 122°60'3 3.0
2017-Feb-16 17:32N 48°33' W 122°56'5 5.5
2017-Feb-16 16:33N 48°32' W 122°48'7 6.1
2017-Feb-16 15:27N 48°31' W 122°38'1 0.9
2017-Feb-16 14:33N 48°31' W 122°37'0 0.0
2017-Feb-16 13:33N 48°31' W 122°37'0 0.0
2017-Feb-16 12:33N 48°31' W 122°37'0 0.0
2017-Feb-16 11:33N 48°31' W 122°37'0 0.0
2017-Feb-16 10:33N 48°31' W 122°37'0 0.0
2017-Feb-16 09:33N 48°31' W 122°37'0 0.0
2017-Feb-16 08:33N 48°31' W 122°37'0 0.0
2017-Feb-16 07:33N 48°31' W 122°37'0 0.0
2017-Feb-16 06:33N 48°31' W 122°37'0 0.0
2017-Feb-16 05:30N 48°31' W 122°37'0 0.0
2017-Feb-16 04:33N 48°31' W 122°37'0 0.0
2017-Feb-16 03:33N 48°31' W 122°37'0 0.0
2017-Feb-16 02:33N 48°31' W 122°37'0 0.0
2017-Feb-16 01:27N 48°31' W 122°37'5 5.2
2017-Feb-16 00:31N 48°32' W 122°44'4 4.5
2017-Feb-15 23:33N 48°33' W 122°50'5 4.8
2017-Feb-15 22:33N 48°33' W 122°58'1 0.8
2017-Feb-15 21:32N 48°32' W 122°59'5 5.1
2017-Feb-15 20:32N 48°34' W 122°51'5 5.2
2017-Feb-15 19:33N 48°32' W 122°44'5 4.8
2017-Feb-15 18:29N 48°31' W 122°36'6 4.2
2017-Feb-15 17:08N 48°32' W 122°45'3 5.1
2017-Feb-15 16:32N 48°32' W 122°49'4 4.4
2017-Feb-15 15:33N 48°33' W 122°56'3 3.2
2017-Feb-15 14:33N 48°32' W 122°60'0 0.0
2017-Feb-15 13:30N 48°32' W 122°60'0 0.0
2017-Feb-15 12:33N 48°32' W 122°60'0 0.0
2017-Feb-15 11:34N 48°32' W 122°60'0 0.0
2017-Feb-15 10:33N 48°32' W 122°60'0 0.0
2017-Feb-15 09:33N 48°32' W 122°60'0 0.0
2017-Feb-15 08:33N 48°32' W 122°60'0 0.0
2017-Feb-15 07:30N 48°32' W 122°60'0 0.0
2017-Feb-15 06:30N 48°32' W 122°60'0 0.0
2017-Feb-15 05:33N 48°32' W 122°60'0 0.0
2017-Feb-15 04:33N 48°32' W 122°60'0 0.0
2017-Feb-15 03:33N 48°32' W 122°60'0 0.0
2017-Feb-15 02:32N 48°32' W 122°60'0 0.0
2017-Feb-15 01:29N 48°32' W 122°60'0 0.0
2017-Feb-15 00:32N 48°32' W 122°60'1 0.8
2017-Feb-14 23:33N 48°33' W 122°60'8 5.8
2017-Feb-14 22:12N 48°38' W 123°09'2 2.0
2017-Feb-14 21:26N 48°39' W 123°10'2 2.1
2017-Feb-14 20:30N 48°37' W 123°09'3 1.0
2017-Feb-14 17:24N 48°40' W 123°10'11 3.8
2017-Feb-14 14:33N 48°32' W 122°60'0 0.0
2017-Feb-14 13:33N 48°32' W 122°60'0 0.0
2017-Feb-14 12:33N 48°32' W 122°60'0 0.0
2017-Feb-14 11:33N 48°32' W 122°60'0 0.0
2017-Feb-14 10:33N 48°32' W 122°60'0 0.0
2017-Feb-14 09:33N 48°32' W 122°60'0 0.0
2017-Feb-14 08:33N 48°32' W 122°60'0 0.0
2017-Feb-14 07:30N 48°32' W 122°60'0 0.0
2017-Feb-14 06:33N 48°32' W 122°60'0 0.0
2017-Feb-14 05:33N 48°32' W 122°60'0 0.0
2017-Feb-14 04:33N 48°32' W 122°60'0 0.0
2017-Feb-14 03:33N 48°32' W 122°60'0 0.0
2017-Feb-14 02:33N 48°32' W 122°60'0 0.0
2017-Feb-14 01:33N 48°32' W 122°60'0 0.0
2017-Feb-14 00:33N 48°32' W 122°60'0 0.0
2017-Feb-13 23:33N 48°32' W 122°60'0 0.0
2017-Feb-13 22:30N 48°32' W 122°60'0 0.0
2017-Feb-13 21:31N 48°32' W 122°60'1 0.6
2017-Feb-13 19:08N 48°33' W 123°00'1 2.6
2017-Feb-13 18:33N 48°32' W 122°60'0 0.0
2017-Feb-13 17:33N 48°32' W 122°60'0 0.0
2017-Feb-13 16:33N 48°32' W 122°60'0 0.0
2017-Feb-13 15:33N 48°32' W 122°60'0 0.0
2017-Feb-13 14:30N 48°32' W 122°60'0 0.0
2017-Feb-13 13:33N 48°32' W 122°60'0 0.0
2017-Feb-13 12:30N 48°32' W 122°60'0 0.0
2017-Feb-13 11:33N 48°32' W 122°60'0 0.0
2017-Feb-13 10:30N 48°32' W 122°60'0 0.0
2017-Feb-13 09:33N 48°32' W 122°60'0 0.0
2017-Feb-13 08:33N 48°32' W 122°60'0 0.0
2017-Feb-13 07:27N 48°32' W 122°60'0 0.0
2017-Feb-13 06:30N 48°32' W 122°60'0 0.0
2017-Feb-13 05:33N 48°32' W 122°60'0 0.0
2017-Feb-13 04:33N 48°32' W 122°60'0 0.0
2017-Feb-13 03:33N 48°32' W 122°60'0 0.0
2017-Feb-13 02:33N 48°32' W 122°60'0 0.0
2017-Feb-13 01:33N 48°32' W 122°60'0 0.0
2017-Feb-13 00:33N 48°32' W 122°60'0 0.0
2017-Feb-12 23:33N 48°32' W 122°60'0 0.0
2017-Feb-12 22:33N 48°32' W 122°60'0 0.0
2017-Feb-12 21:33N 48°32' W 122°60'0 0.0
2017-Feb-12 20:33N 48°32' W 122°60'0 0.0
2017-Feb-12 19:33N 48°32' W 122°60'0 0.0
2017-Feb-12 18:27N 48°32' W 122°60'0 0.0
2017-Feb-12 17:30N 48°32' W 122°60'0 0.0
2017-Feb-12 16:33N 48°32' W 122°60'0 0.0
2017-Feb-12 15:33N 48°32' W 122°60'0 0.0
2017-Feb-12 14:33N 48°32' W 122°60'0 0.0
2017-Feb-12 13:33N 48°32' W 122°60'0 0.0
2017-Feb-12 12:33N 48°32' W 122°60'0 0.0
2017-Feb-12 11:33N 48°32' W 122°60'0 0.0
2017-Feb-12 10:30N 48°32' W 122°60'0 0.0
2017-Feb-12 09:33N 48°32' W 122°60'0 0.0
2017-Feb-12 08:33N 48°32' W 122°60'0 0.0
2017-Feb-12 07:33N 48°32' W 122°60'0 0.0
2017-Feb-12 06:30N 48°32' W 122°60'  

Dump ship's entire track history